Time;durP1;ratioP1;P1;durP2;ratioP2;P2;SDS_P1;SDS_P2;PMS_P1;PMS_P2;Temp;Humidity;BMP_temperature;BMP_pressure;BME280_temperature;BME280_humidity;BME280_pressure;Samples;Min_cycle;Max_cycle;Signal;HPM_P1;HPM_P2
2023/06/01 00:01:50;;;;;;;4.63;2.40;;;14.50;83.90;;;14.35;61.99;97358.16;5024582;28;20537;-38
2023/06/01 00:04:16;;;;;;;5.40;2.28;;;14.50;84.30;;;14.40;61.60;97363.22;5025151;28;20094;-38
2023/06/01 00:06:43;;;;;;;3.28;2.25;;;14.50;84.00;;;14.40;60.77;97368.53;5025183;28;20469;-38
2023/06/01 00:09:08;;;;;;;3.92;1.90;;;14.50;83.50;;;14.40;60.69;97363.22;5026400;28;20057;-38
2023/06/01 00:11:34;;;;;;;4.75;2.50;;;14.50;83.50;;;14.37;61.91;97368.69;5025865;28;20090;-38
2023/06/01 00:14:00;;;;;;;5.70;2.53;;;14.50;84.30;;;14.33;62.64;97362.69;5022890;28;20053;-38
2023/06/01 00:16:26;;;;;;;4.53;2.03;;;14.50;84.70;;;14.27;62.58;97370.97;5029013;28;20607;-38
2023/06/01 00:18:52;;;;;;;6.32;2.13;;;14.40;84.70;;;14.20;62.79;97365.13;5021963;28;20637;-38
2023/06/01 00:21:18;;;;;;;3.13;1.83;;;14.30;84.60;;;14.15;63.90;97367.16;5024396;28;20045;-38
2023/06/01 00:23:44;;;;;;;3.28;2.00;;;14.30;85.40;;;14.07;64.43;97364.06;5022208;28;20026;-38
2023/06/01 00:26:10;;;;;;;4.43;2.25;;;14.20;85.70;;;14.03;64.50;97358.06;5027478;28;20027;-38
2023/06/01 00:28:36;;;;;;;3.92;2.03;;;14.20;85.80;;;13.99;64.20;97358.28;5024927;28;20057;-38
2023/06/01 00:31:01;;;;;;;5.82;2.40;;;14.10;85.70;;;13.98;63.33;97364.50;5024701;28;20389;-38
2023/06/01 00:33:27;;;;;;;4.55;2.10;;;14.10;85.40;;;13.99;62.19;97367.06;5021852;28;20117;-38
2023/06/01 00:35:53;;;;;;;4.13;2.08;;;14.10;84.80;;;13.99;63.23;97361.78;5024123;28;20026;-38
2023/06/01 00:38:19;;;;;;;7.90;2.13;;;14.10;85.40;;;13.96;63.25;97366.38;5026743;28;20033;-38
2023/06/01 00:40:45;;;;;;;7.40;2.85;;;14.10;85.50;;;13.93;63.39;97367.41;5022717;28;20041;-38
2023/06/01 00:43:11;;;;;;;4.68;2.20;;;14.00;85.50;;;13.91;63.33;97363.97;5027336;28;20276;-38
2023/06/01 00:45:40;;;;;;;4.47;2.22;;;14.00;85.50;;;13.85;65.01;97362.47;5026942;28;20041;-39
2023/06/01 00:48:06;;;;;;;5.63;2.58;;;14.00;86.50;;;13.82;64.77;97365.28;5025102;28;20029;-38
2023/06/01 00:50:32;;;;;;;5.55;2.00;;;13.90;86.40;;;13.77;64.25;97361.16;5028192;28;20040;-38
2023/06/01 00:53:01;;;;;;;6.07;2.05;;;13.90;86.10;;;13.78;64.54;97363.72;5024229;28;20113;-38
2023/06/01 00:55:27;;;;;;;4.30;2.25;;;13.90;86.10;;;13.75;66.26;97362.09;5023774;28;20025;-38
2023/06/01 00:57:55;;;;;;;5.88;2.17;;;13.90;87.20;;;13.73;64.79;97360.47;5023507;28;20040;-38
2023/06/01 01:00:22;;;;;;;3.67;2.00;;;13.90;86.40;;;13.69;64.77;97362.41;5024968;28;20132;-38
2023/06/01 01:02:48;;;;;;;4.95;2.10;;;13.80;86.30;;;13.68;65.64;97358.03;5022588;28;20040;-38
2023/06/01 01:05:16;;;;;;;7.90;2.05;;;13.80;87.00;;;13.60;66.33;97356.69;5021317;28;20036;-38
2023/06/01 01:07:56;;;;;;;5.20;2.08;;;13.80;87.50;;;13.49;66.43;97343.97;5041698;28;20350;-38
2023/06/01 01:10:29;;;;;;;4.13;2.30;;;13.70;87.50;;;13.55;67.47;97354.28;5022073;28;20021;-38
2023/06/01 01:13:07;;;;;;;;;;;13.70;88.00;;;13.49;67.57;97354.56;5021185;28;20037;-38
2023/06/01 01:15:47;;;;;;;3.60;1.92;;;13.60;88.00;;;13.46;69.56;97352.06;5019491;28;20043;-38
2023/06/01 01:18:22;;;;;;;3.75;2.20;;;13.60;89.40;;;13.43;68.60;97350.44;5028264;28;20079;-38
2023/06/01 01:20:57;;;;;;;4.57;2.17;;;13.60;88.80;;;13.41;68.77;97354.13;5020936;28;20094;-38
2023/06/01 01:23:59;;;;;;;3.78;2.03;;;13.60;88.90;;;13.36;68.58;97351.69;5022891;28;20030;-38
2023/06/01 01:26:52;;;;;;;6.20;2.50;;;13.50;88.70;;;13.29;69.54;97351.06;5023481;28;20045;-38
2023/06/01 01:29:21;;;;;;;;;;;13.40;89.20;;;13.21;70.90;97353.25;5026257;28;20025;-38
2023/06/01 01:31:50;;;;;;;4.25;2.00;;;13.40;89.90;;;13.17;71.54;97351.66;5017946;28;19921;-38
2023/06/01 01:34:19;;;;;;;10.18;2.40;;;13.30;90.10;;;13.13;73.13;97353.59;5027220;28;20052;-38
2023/06/01 01:36:46;;;;;;;7.93;2.67;;;13.30;90.50;;;13.03;73.16;97336.47;5035593;28;20029;-38
2023/06/01 01:39:12;;;;;;;3.25;2.15;;;13.30;90.60;;;13.01;72.75;97324.22;5023388;28;20202;-38
2023/06/01 01:41:37;;;;;;;5.55;2.95;;;13.20;90.40;;;13.05;72.30;97344.34;5022708;28;20502;-38
2023/06/01 01:44:04;;;;;;;6.53;1.95;;;13.20;90.40;;;13.06;72.97;97338.09;5026722;28;20101;-38
2023/06/01 01:47:18;;;;;;;4.45;2.42;;;13.20;90.60;;;13.05;73.45;97347.84;5015631;28;20168;-38
2023/06/01 01:49:48;;;;;;;4.25;2.50;;;13.20;90.70;;;13.00;74.06;97347.19;5018236;28;20075;-38
2023/06/01 01:52:22;;;;;;;3.75;2.22;;;13.20;90.80;;;12.96;74.12;97335.03;5022917;28;20114;-38
2023/06/01 01:54:50;;;;;;;3.92;1.90;;;13.10;90.80;;;12.79;74.64;97320.81;5019244;28;20029;-38
2023/06/01 01:57:18;;;;;;;4.10;2.17;;;13.10;90.90;;;12.91;74.15;97335.25;5024273;28;20034;-39
2023/06/01 01:59:45;;;;;;;3.63;1.85;;;13.10;90.90;;;12.88;74.81;97338.03;5020460;28;20283;-37
2023/06/01 02:02:11;;;;;;;3.53;2.05;;;13.10;91.00;;;12.87;76.53;97340.78;5022424;28;20029;-39
2023/06/01 02:04:45;;;;;;;3.08;1.60;;;13.00;91.40;;;12.86;76.53;97325.81;5020124;28;20032;-38
2023/06/01 02:07:12;;;;;;;3.78;1.88;;;13.00;91.40;;;12.86;76.61;97326.66;5025584;28;20041;-37
2023/06/01 02:09:39;;;;;;;5.88;2.25;;;13.00;91.50;;;12.85;76.75;97334.66;5023095;28;20470;-38
2023/06/01 02:12:06;;;;;;;4.95;2.17;;;13.00;91.50;;;12.81;76.96;97328.66;5023015;28;20033;-37
2023/06/01 02:14:32;;;;;;;3.72;2.08;;;13.00;91.60;;;12.80;76.94;97329.63;5030662;28;20021;-37
2023/06/01 02:17:00;;;;;;;7.22;2.40;;;13.00;91.60;;;12.77;78.05;97332.41;5025712;28;20034;-37
2023/06/01 02:19:26;;;;;;;3.92;1.90;;;13.00;91.80;;;12.65;77.76;97307.38;5029488;28;20045;-37
2023/06/01 02:21:52;;;;;;;4.47;2.08;;;13.00;91.80;;;12.67;79.75;97313.47;5023535;28;20108;-38
2023/06/01 02:24:18;;;;;;;5.72;2.55;;;12.90;92.20;;;12.70;79.91;97326.53;5029049;28;20508;-38
2023/06/01 02:26:48;;;;;;;3.75;2.20;;;12.90;92.30;;;12.67;80.02;97317.88;5026144;28;20036;-37
2023/06/01 02:29:14;;;;;;;4.45;2.30;;;12.80;92.30;;;12.55;79.11;97306.94;5023999;28;20072;-38
2023/06/01 02:31:40;;;;;;;4.40;2.20;;;12.80;92.20;;;12.60;78.71;97328.75;5022690;28;20037;-38
2023/06/01 02:34:05;;;;;;;3.90;2.45;;;12.80;92.10;;;12.56;79.73;97329.81;5018150;28;20563;-38
2023/06/01 02:36:34;;;;;;;4.47;2.08;;;12.70;92.30;;;12.52;79.29;97324.75;5025880;28;20192;-38
2023/06/01 02:39:00;;;;;;;4.72;2.30;;;12.70;92.20;;;12.51;79.57;97325.69;5025376;28;20030;-38
2023/06/01 02:41:25;;;;;;;4.50;2.45;;;12.70;92.30;;;12.48;79.41;97326.66;5025202;28;20568;-37
2023/06/01 02:43:51;;;;;;;4.75;2.40;;;12.70;92.30;;;12.47;79.90;97321.44;5025854;28;20021;-37
2023/06/01 02:46:18;;;;;;;3.22;1.92;;;12.60;92.40;;;12.40;79.56;97315.59;5025337;28;20508;-37
2023/06/01 02:48:44;;;;;;;2.90;1.90;;;12.70;92.40;;;12.48;79.54;97323.16;5026224;28;20029;-38
2023/06/01 02:51:10;;;;;;;5.80;2.20;;;12.70;92.40;;;12.46;79.93;97323.22;5026766;28;20045;-38
2023/06/01 02:53:36;;;;;;;4.85;2.10;;;12.70;92.40;;;12.44;80.85;97319.81;5026931;28;20037;-38
2023/06/01 02:56:02;;;;;;;3.78;2.38;;;12.60;92.60;;;12.41;82.11;97323.44;5023334;28;20034;-38
2023/06/01 02:58:29;;;;;;;6.68;2.50;;;12.60;93.00;;;12.36;81.51;97330.75;5026458;28;20113;-38
2023/06/01 03:00:57;;;;;;;2.50;1.83;;;12.60;92.90;;;12.36;81.63;97333.38;5024051;28;20111;-38
2023/06/01 03:03:27;;;;;;;3.40;1.98;;;12.60;92.90;;;12.33;82.24;97327.38;5027097;28;20029;-38
2023/06/01 03:05:53;;;;;;;4.82;1.80;;;12.50;93.00;;;12.30;83.67;97328.34;5022609;28;20171;-38
2023/06/01 03:08:19;;;;;;;3.45;2.25;;;12.50;93.40;;;12.27;83.76;97328.50;5026983;28;20486;-38
2023/06/01 03:10:45;;;;;;;5.15;2.33;;;12.50;93.40;;;12.25;83.12;97332.13;5022146;28;20515;-38
2023/06/01 03:13:12;;;;;;;3.83;2.00;;;12.50;93.30;;;12.23;83.13;97325.13;5025555;28;20045;-37
2023/06/01 03:15:38;;;;;;;6.03;2.17;;;12.50;93.30;;;12.12;84.76;97310.69;5024636;28;20033;-38
2023/06/01 03:18:05;;;;;;;3.78;1.95;;;12.40;93.60;;;12.22;86.23;97325.19;5026809;28;20033;-38
2023/06/01 03:20:32;;;;;;;5.20;2.13;;;12.40;94.00;;;12.17;86.17;97328.06;5023095;28;20033;-38
2023/06/01 03:22:58;;;;;;;3.13;2.10;;;12.40;94.00;;;12.17;86.14;97329.84;5024882;28;20025;-38
2023/06/01 03:25:24;;;;;;;3.70;2.13;;;12.40;94.00;;;12.11;86.22;97324.81;5024129;28;20391;-38
2023/06/01 03:27:50;;;;;;;5.47;2.50;;;12.30;94.00;;;12.14;85.80;97337.91;5018647;28;20021;-38
2023/06/01 03:30:16;;;;;;;6.38;2.10;;;12.30;94.00;;;12.10;86.13;97334.53;5024751;28;20055;-38
2023/06/01 03:32:43;;;;;;;6.53;2.53;;;12.30;94.10;;;12.10;85.68;97336.34;5025462;28;20098;-37
2023/06/01 03:35:11;;;;;;;4.38;2.30;;;12.30;94.00;;;12.13;85.98;97338.81;5027278;28;20040;-38
2023/06/01 03:37:39;;;;;;;3.83;2.42;;;12.30;94.10;;;12.14;86.16;97337.91;5024530;28;20119;-38
2023/06/01 03:40:10;;;;;;;9.15;2.58;;;12.40;94.20;;;12.12;86.14;97330.03;5024931;28;20033;-37
2023/06/01 03:42:42;;;;;;;5.90;2.30;;;12.40;94.20;;;12.15;85.88;97335.19;5026766;28;20038;-38
2023/06/01 03:45:10;;;;;;;4.07;2.13;;;12.40;94.10;;;12.16;87.00;97341.34;5028846;28;20412;-38
2023/06/01 03:47:35;;;;;;;4.10;2.00;;;12.40;94.40;;;12.15;87.42;97335.19;5022424;28;20036;-38
2023/06/01 03:50:03;;;;;;;3.90;2.20;;;12.40;94.50;;;12.19;87.64;97341.22;5025613;28;20042;-38
2023/06/01 03:52:29;;;;;;;3.47;2.00;;;12.40;94.60;;;12.21;87.41;97342.84;5023907;28;20501;-38
2023/06/01 03:54:57;;;;;;;5.97;2.13;;;12.40;94.60;;;12.24;88.11;97336.56;5021311;28;20648;-38
2023/06/01 03:57:23;;;;;;;5.10;2.25;;;12.50;94.70;;;12.28;87.99;97346.09;5026858;28;20113;-38
2023/06/01 03:59:50;;;;;;;4.32;2.25;;;12.50;94.70;;;12.28;87.29;97340.78;5022233;28;20034;-38
2023/06/01 04:02:18;;;;;;;3.90;2.10;;;12.50;94.70;;;12.32;87.28;97346.81;5024269;28;20037;-38
2023/06/01 04:04:45;;;;;;;3.88;2.00;;;12.50;94.60;;;12.36;87.53;97343.09;5022415;28;20029;-38
2023/06/01 04:07:14;;;;;;;4.03;2.30;;;12.60;94.70;;;12.41;87.88;97347.22;5023969;28;20490;-38
2023/06/01 04:09:43;;;;;;;7.45;2.35;;;12.60;94.80;;;12.48;88.59;97352.25;5025162;28;20119;-38
2023/06/01 04:12:13;;;;;;;7.30;2.38;;;12.70;95.10;;;12.56;88.00;97350.13;5024608;28;20102;-38
2023/06/01 04:14:39;;;;;;;3.83;2.15;;;12.70;94.90;;;12.60;88.84;97354.34;5024802;28;20051;-38
2023/06/01 04:17:06;;;;;;;4.60;2.10;;;12.80;95.10;;;12.65;87.96;97349.72;5024323;28;20025;-38
2023/06/01 04:19:33;;;;;;;4.00;2.15;;;12.80;94.90;;;12.70;87.09;97354.78;5027827;28;20477;-38
2023/06/01 04:21:59;;;;;;;3.70;1.70;;;13.00;94.80;;;12.73;87.67;97350.19;5020986;28;20611;-38
2023/06/01 04:24:25;;;;;;;2.60;1.83;;;13.00;94.90;;;12.82;88.49;97351.56;5027522;28;20033;-38
2023/06/01 04:26:51;;;;;;;3.63;1.90;;;13.00;95.10;;;12.75;89.40;97329.81;5021503;28;20034;-38
2023/06/01 04:29:19;;;;;;;3.17;1.85;;;13.10;95.30;;;12.92;88.86;97352.84;5025623;28;20525;-38
2023/06/01 04:31:45;;;;;;;4.40;1.83;;;13.10;95.20;;;12.98;88.06;97349.06;5020999;28;20040;-37
2023/06/01 04:34:12;;;;;;;7.40;1.90;;;13.20;95.10;;;12.99;87.56;97342.81;5021186;28;20029;-38
2023/06/01 04:36:38;;;;;;;5.72;2.10;;;13.20;95.00;;;13.15;88.17;97348.25;5021014;28;20060;-37
2023/06/01 04:39:06;;;;;;;4.10;1.88;;;13.30;95.20;;;13.14;88.31;97341.25;5023415;28;20041;-38
2023/06/01 04:41:34;;;;;;;5.97;1.80;;;13.40;95.20;;;13.30;88.50;97357.25;5024339;28;20034;-38
2023/06/01 04:44:05;;;;;;;6.30;2.20;;;13.50;95.30;;;13.37;89.63;97348.13;5025034;28;20112;-38
2023/06/01 04:46:31;;;;;;;3.63;2.00;;;13.50;95.50;;;13.47;87.90;97351.16;5022049;28;20053;-38
2023/06/01 04:48:59;;;;;;;4.82;2.00;;;13.60;95.30;;;13.55;86.34;97347.19;5024102;28;20485;-38
2023/06/01 04:51:26;;;;;;;4.70;2.05;;;13.70;94.90;;;13.65;85.20;97355.53;5024856;28;20068;-38
2023/06/01 04:53:53;;;;;;;4.78;2.03;;;13.80;94.80;;;13.72;84.14;97356.09;5022984;28;20061;-38
2023/06/01 04:56:24;;;;;;;3.72;2.17;;;13.90;94.50;;;13.79;83.47;97352.19;5023924;28;20043;-38
2023/06/01 04:58:51;;;;;;;5.22;1.90;;;14.00;94.70;;;13.89;83.06;97350.78;5022332;28;20176;-38
2023/06/01 05:01:17;;;;;;;6.15;2.17;;;14.10;94.30;;;13.94;82.45;97359.38;5024030;28;20091;-38
2023/06/01 05:03:45;;;;;;;4.43;1.90;;;14.20;94.20;;;14.05;81.59;97358.81;5025705;28;20544;-38
2023/06/01 05:06:12;;;;;;;3.55;1.98;;;14.20;94.00;;;14.16;80.21;97357.38;5022310;28;20021;-38
2023/06/01 05:08:39;;;;;;;3.33;1.80;;;14.30;93.70;;;14.25;78.26;97357.78;5023533;28;20032;-38
2023/06/01 05:11:06;;;;;;;4.70;2.08;;;14.40;93.40;;;14.36;78.31;97364.31;5022858;28;20043;-38
2023/06/01 05:13:34;;;;;;;7.55;2.17;;;14.50;93.40;;;14.46;77.81;97366.41;5024950;28;20021;-38
2023/06/01 05:15:59;;;;;;;3.97;2.08;;;14.60;93.30;;;14.52;76.33;97368.72;5022038;28;20033;-38
2023/06/01 05:18:25;;;;;;;4.60;1.92;;;14.70;93.00;;;14.59;75.06;97371.94;5024385;28;20025;-38
2023/06/01 05:20:51;;;;;;;3.72;1.80;;;14.70;92.70;;;14.66;74.40;97370.69;5021244;28;20029;-38
2023/06/01 05:23:17;;;;;;;3.65;2.30;;;14.80;92.50;;;14.88;72.67;97380.97;5022870;28;20053;-38
2023/06/01 05:25:42;;;;;;;4.18;2.67;;;15.00;92.20;;;15.15;71.39;97374.25;5023269;28;20028;-38
2023/06/01 05:28:08;;;;;;;3.75;2.40;;;15.10;92.00;;;15.50;70.42;97374.88;5023679;28;20764;-38
2023/06/01 05:30:35;;;;;;;3.20;1.90;;;15.40;92.00;;;15.66;68.91;97370.41;5024387;28;20502;-38
2023/06/01 05:33:00;;;;;;;4.70;2.25;;;15.60;91.70;;;15.73;69.84;97364.75;5021037;28;20399;-38
2023/06/01 05:35:26;;;;;;;4.03;1.83;;;15.70;91.80;;;15.73;73.38;97370.06;5023566;28;20040;-38
2023/06/01 05:37:52;;;;;;;5.72;2.20;;;15.70;92.60;;;15.72;75.27;97374.53;5019221;28;20052;-39
2023/06/01 05:40:17;;;;;;;3.33;2.00;;;15.70;92.90;;;15.70;73.71;97371.06;5026155;28;20037;-38
2023/06/01 05:42:43;;;;;;;4.60;2.17;;;15.80;92.50;;;15.72;73.53;97368.34;5020931;28;20523;-38
2023/06/01 05:45:09;;;;;;;5.55;2.20;;;15.80;92.40;;;15.76;73.01;97364.59;5022476;28;20033;-38
2023/06/01 05:47:35;;;;;;;4.05;2.05;;;15.80;92.20;;;15.80;72.00;97366.13;5023757;28;20033;-38
2023/06/01 05:50:01;;;;;;;2.80;2.10;;;15.90;92.10;;;15.87;71.62;97372.78;5021895;28;20037;-38
2023/06/01 05:52:27;;;;;;;4.18;2.40;;;16.00;91.90;;;15.96;71.79;97374.91;5024853;28;20025;-38
2023/06/01 05:54:53;;;;;;;4.22;2.28;;;16.00;92.10;;;16.05;70.72;97364.69;5021742;28;20029;-38
2023/06/01 05:57:20;;;;;;;4.10;2.13;;;16.10;91.80;;;16.18;71.12;97370.97;5027259;28;20013;-38
2023/06/01 05:59:46;;;;;;;6.05;2.20;;;16.20;92.00;;;16.31;70.79;97373.75;5023606;28;20036;-38
2023/06/01 06:02:13;;;;;;;4.00;1.92;;;16.40;91.90;;;16.46;69.71;97371.97;5018860;28;20259;-38
2023/06/01 06:04:40;;;;;;;4.70;2.20;;;16.50;91.70;;;16.50;67.94;97361.03;5020550;28;20032;-38
2023/06/01 06:07:06;;;;;;;5.22;2.45;;;16.60;91.40;;;16.69;67.55;97381.19;5019222;28;20033;-40
2023/06/01 06:09:32;;;;;;;4.78;2.28;;;16.70;91.10;;;16.80;67.95;97376.91;5023122;28;20026;-38
2023/06/01 06:11:58;;;;;;;4.10;2.30;;;16.80;91.20;;;16.94;68.16;97384.09;5018461;28;20049;-38
2023/06/01 06:14:24;;;;;;;4.75;1.95;;;17.00;91.30;;;17.09;65.04;97384.06;5020689;28;20026;-38
2023/06/01 06:16:50;;;;;;;10.10;2.35;;;17.10;91.00;;;17.20;62.23;97386.03;5020765;28;20535;-38
2023/06/01 06:19:16;;;;;;;4.63;2.30;;;17.20;89.80;;;17.31;60.96;97388.88;5024638;28;20036;-38
2023/06/01 06:21:42;;;;;;;7.38;2.40;;;17.30;89.60;;;17.44;61.29;97394.25;5018273;28;20040;-38
2023/06/01 06:24:08;;;;;;;5.78;2.10;;;17.40;89.40;;;17.56;59.67;97380.13;5020463;28;20037;-38
2023/06/01 06:26:34;;;;;;;3.47;2.20;;;17.50;88.50;;;17.66;58.47;97383.91;5021662;28;20040;-38
2023/06/01 06:28:59;;;;;;;5.65;2.45;;;17.60;87.70;;;17.76;58.08;97381.47;5020662;28;20049;-38
2023/06/01 06:31:25;;;;;;;4.63;2.30;;;17.70;87.30;;;17.83;58.45;97382.78;5020253;28;20034;-38
2023/06/01 06:33:52;;;;;;;5.53;2.15;;;17.80;87.30;;;17.96;58.07;97379.31;5022700;28;20108;-38
2023/06/01 06:36:17;;;;;;;8.18;2.67;;;17.90;87.40;;;18.08;57.75;97381.16;5021025;28;20033;-38
2023/06/01 06:38:44;;;;;;;5.47;2.30;;;18.00;87.10;;;18.22;57.41;97383.75;5022733;28;20435;-38
2023/06/01 06:41:10;;;;;;;7.30;2.90;;;18.20;87.00;;;18.26;54.40;97385.25;5021959;28;20532;-38
2023/06/01 06:43:36;;;;;;;7.32;2.92;;;18.30;84.70;;;18.20;53.33;97374.16;5020275;28;20076;-38
2023/06/01 06:46:02;;;;;;;5.78;2.83;;;18.20;83.40;;;18.34;53.38;97389.22;5022496;28;20116;-38
2023/06/01 06:48:28;;;;;;;4.90;2.80;;;18.30;83.30;;;18.47;52.99;97393.59;5023371;28;20061;-38
2023/06/01 06:50:55;;;;;;;4.57;2.35;;;18.40;83.80;;;18.48;52.92;97375.75;5019160;28;20040;-38
2023/06/01 06:53:20;;;;;;;5.32;2.72;;;18.50;83.30;;;18.62;53.10;97388.16;5021712;28;20037;-38
2023/06/01 06:55:46;;;;;;;4.05;2.30;;;18.50;82.70;;;18.76;52.86;97385.38;5018746;28;20055;-38
2023/06/01 06:58:13;;;;;;;9.07;2.72;;;18.70;83.30;;;18.92;52.79;97389.69;5026897;28;20080;-38
2023/06/01 07:00:40;;;;;;;6.03;2.60;;;18.80;83.00;;;19.01;53.25;97394.38;5025433;28;20121;-38
2023/06/01 07:03:06;;;;;;;3.40;2.08;;;18.90;83.40;;;19.07;53.35;97384.06;5027929;28;20030;-38
2023/06/01 07:05:32;;;;;;;7.57;2.88;;;19.00;83.50;;;19.24;52.37;97392.72;5023534;28;20033;-38
2023/06/01 07:07:58;;;;;;;4.97;2.60;;;19.10;82.70;;;19.33;52.60;97388.53;5023874;28;20030;-38
2023/06/01 07:10:24;;;;;;;6.25;2.65;;;19.20;82.90;;;19.44;52.17;97392.13;5027215;28;20032;-38
2023/06/01 07:12:50;;;;;;;4.53;2.45;;;19.40;82.80;;;19.57;51.41;97394.75;5025126;28;20036;-38
2023/06/01 07:15:16;;;;;;;4.25;2.47;;;19.50;81.50;;;19.74;51.20;97390.88;5026832;28;20060;-38
2023/06/01 07:17:42;;;;;;;6.13;2.65;;;19.60;81.80;;;19.82;50.27;97385.78;5026561;28;20075;-38
2023/06/01 07:20:11;;;;;;;5.47;2.80;;;19.70;80.80;;;19.94;49.57;97389.38;5025713;28;20116;-38
2023/06/01 07:22:38;;;;;;;4.78;2.50;;;19.70;80.10;;;20.01;49.24;97390.63;5027146;28;20025;-39
2023/06/01 07:25:05;;;;;;;5.30;2.58;;;19.80;79.70;;;20.09;49.51;97387.34;5027045;28;20017;-38
2023/06/01 07:27:31;;;;;;;5.38;2.60;;;19.90;79.80;;;20.17;49.71;97390.31;5024854;28;20025;-38
2023/06/01 07:29:57;;;;;;;5.95;3.10;;;20.00;80.00;;;20.26;49.44;97387.88;5022055;28;20430;-38
2023/06/01 07:32:24;;;;;;;5.63;2.40;;;20.10;80.50;;;20.29;48.42;97385.81;5027621;28;20029;-38
2023/06/01 07:34:50;;;;;;;4.47;2.53;;;20.20;78.40;;;20.27;48.29;97363.66;5020377;28;20087;-38
2023/06/01 07:37:16;;;;;;;6.43;2.95;;;20.30;79.70;;;20.52;48.15;97393.91;5027642;28;20029;-38
2023/06/01 07:39:41;;;;;;;5.05;2.47;;;20.40;78.40;;;20.59;47.71;97392.47;5021495;28;20308;-38
2023/06/01 07:42:07;;;;;;;9.25;2.97;;;20.40;77.50;;;20.41;46.17;97392.91;5025633;28;20029;-38
2023/06/01 07:44:33;;;;;;;3.75;2.97;;;20.40;75.20;;;20.51;47.05;97394.88;5026565;28;20486;-38
2023/06/01 07:46:59;;;;;;;7.22;3.42;;;20.40;77.10;;;20.40;46.24;97391.22;5021503;28;20497;-38
2023/06/01 07:49:25;;;;;;;4.32;2.47;;;20.40;75.10;;;20.53;46.35;97391.13;5026532;28;20041;-38
2023/06/01 07:51:52;;;;;;;7.38;2.35;;;20.40;75.70;;;20.62;47.50;97388.72;5022407;28;20043;-38
2023/06/01 07:54:18;;;;;;;6.53;2.50;;;20.60;77.10;;;20.73;45.37;97399.47;5025288;28;20068;-38
2023/06/01 07:56:44;;;;;;;5.68;3.10;;;20.60;75.80;;;20.75;45.46;97398.38;5026773;28;20029;-38
2023/06/01 07:59:09;;;;;;;5.50;3.20;;;20.70;74.40;;;20.85;45.94;97387.75;5024799;28;20044;-39
2023/06/01 08:01:37;;;;;;;4.90;2.97;;;20.80;75.60;;;20.94;44.98;97396.91;5040065;22;20116;-41
2023/06/01 08:04:03;;;;;;;5.47;2.80;;;20.90;74.70;;;20.99;45.34;97389.34;5060014;28;20879;-41
2023/06/01 08:06:35;;;;;;;8.90;3.75;;;20.90;74.30;;;21.11;45.61;97393.75;5060684;28;20044;-41
2023/06/01 08:09:04;;;;;;;7.60;3.08;;;21.00;75.70;;;21.24;44.94;97385.56;5053255;28;20020;-41
2023/06/01 08:11:30;;;;;;;8.45;3.72;;;21.10;74.00;;;21.30;46.38;97397.63;5052798;28;20036;-41
2023/06/01 08:13:56;;;;;;;5.22;3.13;;;21.20;73.80;;;21.45;44.90;97387.50;5053266;28;20712;-40
2023/06/01 08:16:21;;;;;;;5.90;3.58;;;21.30;74.00;;;21.56;45.22;97386.66;5052423;28;20476;-40
2023/06/01 08:18:47;;;;;;;8.77;2.78;;;21.40;74.40;;;21.68;44.61;97383.81;5054782;28;20035;-41
2023/06/01 08:21:13;;;;;;;9.48;3.60;;;21.50;74.00;;;21.77;44.36;97384.88;5055608;28;20395;-40
2023/06/01 08:23:38;;;;;;;6.40;3.15;;;21.60;73.80;;;21.93;44.95;97381.78;5054219;28;20044;-40
2023/06/01 08:26:04;;;;;;;5.88;3.00;;;21.70;74.20;;;22.06;45.80;97381.59;5055368;28;20484;-39
2023/06/01 08:28:32;;;;;;;4.70;3.10;;;21.90;74.80;;;22.14;44.36;97376.41;5054493;28;20033;-39
2023/06/01 08:30:57;;;;;;;7.53;3.22;;;21.90;73.90;;;22.20;44.59;97383.97;5054179;28;20052;-39
2023/06/01 08:33:23;;;;;;;12.18;4.30;;;22.10;73.60;;;22.20;44.25;97378.59;5053520;28;20668;-39
2023/06/01 08:35:49;;;;;;;6.35;3.20;;;22.10;73.10;;;22.26;44.00;97372.72;5051296;28;20025;-40
2023/06/01 08:38:15;;;;;;;10.95;3.90;;;22.10;72.90;;;22.35;42.99;97370.25;5049771;28;20103;-39
2023/06/01 08:40:40;;;;;;;11.43;3.63;;;22.20;71.80;;;22.38;42.21;97370.84;5054316;28;20488;-39
2023/06/01 08:43:16;;;;;;;7.15;3.75;;;22.30;70.70;;;22.42;42.93;97371.44;5052497;28;20031;-39
2023/06/01 08:45:44;;;;;;;6.72;3.53;;;22.30;71.10;;;22.42;42.28;97366.91;5050749;28;20016;-38
2023/06/01 08:48:17;;;;;;;6.72;3.47;;;22.30;71.00;;;22.40;42.33;97373.41;5050758;28;20084;-39
2023/06/01 08:50:48;;;;;;;6.55;4.18;;;22.30;70.50;;;22.41;45.15;97367.88;5052564;28;20092;-37
2023/06/01 08:53:18;;;;;;;8.45;3.33;;;22.30;73.40;;;22.43;42.53;97362.38;5067704;28;20154;-39
2023/06/01 08:55:51;;;;;;;7.00;3.35;;;22.40;71.50;;;22.37;42.37;97366.44;5053653;28;20105;-39
2023/06/01 08:58:17;;;;;;;4.88;3.67;;;22.30;70.20;;;22.26;42.06;97366.47;5051521;28;20440;-38
2023/06/01 09:00:47;;;;;;;6.00;3.30;;;22.20;69.70;;;22.33;43.29;97361.47;5050653;28;20075;-39
2023/06/01 09:03:13;;;;;;;5.80;3.33;;;22.20;70.50;;;22.43;42.73;97351.63;5048911;28;20029;-39
2023/06/01 09:05:39;;;;;;;3.88;2.95;;;22.30;71.30;;;22.56;42.83;97363.03;5047872;28;20420;-38
2023/06/01 09:08:05;;;;;;;6.35;3.22;;;22.40;71.10;;;22.60;43.84;97358.25;5053347;28;20021;-39
2023/06/01 09:10:31;;;;;;;9.77;3.80;;;22.50;72.50;;;22.61;45.00;97363.50;5052925;28;20551;-41
2023/06/01 09:12:56;;;;;;;6.00;4.00;;;22.50;73.50;;;22.59;43.37;97367.28;5052691;28;20040;-38
2023/06/01 09:15:23;;;;;;;6.63;3.70;;;22.50;69.50;;;22.63;42.25;97363.34;5053729;28;20091;-40
2023/06/01 09:17:51;;;;;;;7.72;3.83;;;22.60;70.50;;;22.74;42.47;97368.66;5053656;28;20025;-40
2023/06/01 09:20:28;;;;;;;6.20;3.80;;;22.60;70.60;;;22.89;42.78;97366.44;5054699;28;20029;-38
2023/06/01 09:22:54;;;;;;;6.22;3.90;;;22.80;71.30;;;22.99;43.01;97364.66;5055173;28;20036;-38
2023/06/01 09:25:29;;;;;;;5.72;3.40;;;22.90;72.00;;;23.12;40.94;97360.94;5053038;28;20496;-38
2023/06/01 09:27:57;;;;;;;4.63;3.40;;;23.00;69.60;;;23.13;41.04;97362.59;5050269;28;20044;-39
2023/06/01 09:30:25;;;;;;;10.18;4.68;;;23.00;68.50;;;23.16;41.35;97365.03;5053034;28;20032;-40
2023/06/01 09:33:07;;;;;;;6.38;3.80;;;23.00;68.70;;;23.27;42.17;97362.22;5049728;28;20473;-38
2023/06/01 09:35:46;;;;;;;5.72;3.63;;;23.10;70.00;;;23.39;40.90;97361.13;5053584;28;20040;-39
2023/06/01 09:38:21;;;;;;;5.68;3.63;;;23.30;68.90;;;23.41;41.12;97355.63;5051059;28;20040;-39
2023/06/01 09:40:57;;;;;;;9.63;3.95;;;23.30;67.90;;;23.37;40.47;97365.81;5053010;28;20020;-39
2023/06/01 09:43:23;;;;;;;6.80;3.92;;;23.40;67.10;;;23.37;40.65;97363.13;5053090;28;20309;-38
2023/06/01 09:46:09;;;;;;;6.53;3.58;;;23.30;67.00;;;23.52;41.05;97365.41;5051817;28;20024;-40
2023/06/01 09:48:36;;;;;;;5.55;3.65;;;23.40;68.20;;;23.59;40.60;97355.78;5052578;28;20025;-39
2023/06/01 09:51:02;;;;;;;5.97;3.72;;;23.50;68.40;;;23.51;40.88;97358.31;5051011;28;20495;-39
2023/06/01 09:53:28;;;;;;;6.63;4.10;;;23.40;67.10;;;23.56;41.66;97348.00;5054395;28;20028;-39
2023/06/01 09:55:59;;;;;;;6.57;3.70;;;23.50;68.60;;;23.64;41.41;97340.91;5051265;28;20087;-38
2023/06/01 09:58:25;;;;;;;7.20;4.30;;;23.60;68.40;;;23.81;41.64;97344.81;5053434;28;20111;-38
2023/06/01 10:00:51;;;;;;;6.15;4.00;;;23.70;69.20;;;23.97;41.55;97335.28;5049864;28;20024;-39
2023/06/01 10:03:19;;;;;;;5.43;3.90;;;23.90;69.90;;;24.07;40.14;97344.22;5051371;28;20036;-41
2023/06/01 10:05:46;;;;;;;4.57;3.63;;;24.00;67.00;;;24.19;40.01;97336.81;5053644;28;20025;-40
2023/06/01 10:08:14;;;;;;;8.85;4.38;;;24.10;67.20;;;24.25;40.84;97338.13;5052344;28;20480;-39
2023/06/01 10:10:45;;;;;;;6.00;4.35;;;24.20;68.00;;;24.25;38.61;97338.13;5053688;28;20055;-39
2023/06/01 10:13:12;;;;;;;6.70;4.35;;;24.30;65.30;;;24.24;39.26;97333.72;5050882;28;20131;-39
2023/06/01 10:15:37;;;;;;;6.40;4.40;;;24.20;64.80;;;24.18;39.94;97330.59;5052108;28;20028;-40
2023/06/01 10:18:05;;;;;;;7.00;4.35;;;24.10;66.00;;;24.12;39.03;97331.19;5049527;28;20377;-40
2023/06/01 10:20:39;;;;;;;5.85;3.78;;;24.10;65.00;;;24.14;39.30;97334.56;5052902;28;20108;-39
2023/06/01 10:23:06;;;;;;;6.57;4.22;;;24.10;65.50;;;24.12;40.08;97316.84;5052613;28;20514;-40